Time;durP1;ratioP1;P1;durP2;ratioP2;P2;SDS_P1;SDS_P2;PMS_P1;PMS_P2;Temp;Humidity;BMP_temperature;BMP_pressure;BME280_temperature;BME280_humidity;BME280_pressure;Samples;Min_cycle;Max_cycle;Signal;HPM_P1;HPM_P2
2022/06/04 00:00:59;;;;;;;4.03;3.73;;;13.10;99.90;;;;;;5052665;28;20195;-48
2022/06/04 00:03:27;;;;;;;3.63;3.33;;;13.10;99.90;;;;;;5045235;28;20686;-52
2022/06/04 00:05:57;;;;;;;5.63;3.77;;;13.10;99.90;;;;;;5055576;28;20207;-47
2022/06/04 00:08:25;;;;;;;6.07;3.37;;;13.00;99.90;;;;;;5041894;28;20254;-49
2022/06/04 00:16:28;;;;;;;3.90;3.07;;;12.90;99.90;;;;;;5040125;28;20198;-48
2022/06/04 00:18:55;;;;;;;4.47;2.90;;;12.80;99.90;;;;;;5043851;28;20222;-49
2022/06/04 00:21:23;;;;;;;5.60;3.60;;;12.80;99.90;;;;;;5047837;28;20199;-49
2022/06/04 00:23:51;;;;;;;3.67;3.37;;;12.70;99.90;;;;;;5050370;28;20202;-49
2022/06/04 00:26:20;;;;;;;4.10;3.43;;;12.70;99.90;;;;;;5045852;28;20282;-47
2022/06/04 00:28:48;;;;;;;4.40;3.40;;;12.70;99.90;;;;;;5042293;28;20226;-51
2022/06/04 00:31:16;;;;;;;4.13;3.40;;;12.70;99.90;;;;;;5049528;28;20198;-51
2022/06/04 00:33:43;;;;;;;4.37;3.97;;;12.70;99.90;;;;;;5042317;28;20206;-47
2022/06/04 00:36:11;;;;;;;5.63;4.27;;;12.70;99.90;;;;;;5052761;28;20536;-53
2022/06/04 00:38:38;;;;;;;6.27;3.93;;;12.60;99.90;;;;;;5044303;28;20222;-47
2022/06/04 00:41:24;;;;;;;4.50;3.37;;;12.60;99.90;;;;;;5048151;28;20203;-46
2022/06/04 00:44:00;;;;;;;4.83;3.60;;;12.50;99.90;;;;;;5045971;28;20627;-51
2022/06/04 00:47:06;;;;;;;4.13;3.70;;;12.50;99.90;;;;;;5039391;28;20203;-51
2022/06/04 00:49:33;;;;;;;5.10;4.10;;;12.50;99.90;;;;;;5036010;28;20921;-48
2022/06/04 00:52:02;;;;;;;6.80;4.30;;;12.40;99.90;;;;;;5049947;28;20206;-50
2022/06/04 00:54:29;;;;;;;7.47;4.27;;;12.30;99.90;;;;;;5040345;28;20277;-47
2022/06/04 00:57:13;;;;;;;5.53;4.00;;;12.30;99.90;;;;;;5045593;28;20207;-47
2022/06/04 00:59:51;;;;;;;7.07;4.60;;;12.40;99.90;;;;;;5052060;28;20207;-51
2022/06/04 01:02:28;;;;;;;5.17;4.73;;;12.30;99.90;;;;;;5047137;28;20612;-47
2022/06/04 01:05:04;;;;;;;6.33;4.70;;;12.30;99.90;;;;;;5038728;28;20240;-50
2022/06/04 01:07:53;;;;;;;4.50;4.07;;;12.30;99.90;;;;;;5049464;28;20946;-49
2022/06/04 01:10:32;;;;;;;6.70;4.53;;;12.30;99.90;;;;;;5046512;28;20218;-48
2022/06/04 01:13:09;;;;;;;5.10;4.53;;;12.20;99.90;;;;;;5043460;28;20203;-48
2022/06/04 01:15:51;;;;;;;7.83;5.20;;;12.20;99.90;;;;;;5044471;28;20194;-48
2022/06/04 01:18:32;;;;;;;5.90;4.33;;;12.10;99.90;;;;;;5050465;28;20215;-50
2022/06/04 01:21:06;;;;;;;5.80;4.37;;;12.10;99.90;;;;;;5040100;28;20210;-47
2022/06/04 01:24:21;;;;;;;5.43;4.93;;;12.10;99.90;;;;;;5047297;28;20194;-49
2022/06/04 01:27:10;;;;;;;5.40;4.90;;;12.10;99.90;;;;;;5052408;28;20281;-48
2022/06/04 01:29:42;;;;;;;10.63;5.10;;;12.00;99.90;;;;;;5058633;28;20214;-49
2022/06/04 01:32:18;;;;;;;6.97;5.53;;;11.90;99.90;;;;;;5053339;28;20210;-52
2022/06/04 01:34:51;;;;;;;7.10;5.50;;;11.90;99.90;;;;;;5043951;28;20191;-47
2022/06/04 01:37:26;;;;;;;5.73;5.13;;;11.90;99.90;;;;;;5043890;28;20214;-49
2022/06/04 01:42:44;;;;;;;7.03;5.50;;;11.90;99.90;;;;;;5040493;28;20207;-47
2022/06/04 01:45:14;;;;;;;6.10;5.30;;;11.80;99.90;;;;;;5046873;28;20199;-49
2022/06/04 01:47:44;;;;;;;6.47;5.87;;;11.80;99.90;;;;;;5053277;28;20193;-47
2022/06/04 01:50:15;;;;;;;7.80;6.17;;;11.80;99.90;;;;;;5061318;28;20272;-50
2022/06/04 01:52:44;;;;;;;8.00;6.23;;;;;;;;;;5032902;28;20218;-51
2022/06/04 01:55:15;;;;;;;9.17;6.00;;;11.70;99.90;;;;;;5048530;28;20686;-49
2022/06/04 01:57:48;;;;;;;7.60;6.27;;;11.70;99.90;;;;;;5043633;28;20238;-47
2022/06/04 02:00:18;;;;;;;6.87;6.10;;;11.60;99.90;;;;;;5050876;28;20219;-50
2022/06/04 02:02:49;;;;;;;8.57;6.30;;;11.50;99.90;;;;;;5059719;28;20271;-47
2022/06/04 02:05:21;;;;;;;11.40;6.93;;;11.50;99.90;;;;;;5050114;28;20198;-50
2022/06/04 02:07:52;;;;;;;8.43;6.47;;;11.50;99.90;;;;;;5055185;28;20241;-48
2022/06/04 02:10:24;;;;;;;7.93;6.37;;;11.50;99.90;;;;;;5056647;28;20333;-51
2022/06/04 02:12:54;;;;;;;11.97;6.60;;;11.40;99.90;;;;;;5055822;28;20202;-47
2022/06/04 02:15:26;;;;;;;8.20;6.17;;;11.40;99.90;;;;;;5051828;28;20203;-48
2022/06/04 02:17:57;;;;;;;8.20;6.87;;;11.40;99.90;;;;;;5063035;28;20225;-47
2022/06/04 02:20:24;;;;;;;10.07;6.40;;;11.40;99.90;;;;;;5060334;28;20287;-47
2022/06/04 02:22:53;;;;;;;7.80;7.00;;;11.40;99.90;;;;;;5053285;28;20336;-48
2022/06/04 02:25:22;;;;;;;10.57;6.67;;;11.30;99.90;;;;;;5048973;28;20664;-51
2022/06/04 02:27:54;;;;;;;8.03;6.87;;;11.30;99.90;;;;;;5048386;28;20676;-48
2022/06/04 02:30:22;;;;;;;10.47;7.40;;;11.30;99.90;;;;;;5045302;28;20231;-49
2022/06/04 02:33:07;;;;;;;10.50;7.23;;;11.30;99.90;;;;;;5051352;28;20201;-50
2022/06/04 02:35:40;;;;;;;13.00;7.23;;;11.30;99.90;;;;;;5045694;28;20210;-48
2022/06/04 02:38:19;;;;;;;11.03;6.97;;;11.30;99.90;;;;;;5042264;28;20207;-51
2022/06/04 02:40:53;;;;;;;9.50;6.83;;;11.30;99.90;;;;;;5038898;28;20568;-51
2022/06/04 02:43:29;;;;;;;7.60;6.23;;;11.20;99.90;;;;;;5047812;28;20329;-48
2022/06/04 02:46:07;;;;;;;7.37;6.63;;;11.30;99.90;;;;;;5044706;28;20278;-51
2022/06/04 02:48:37;;;;;;;8.97;6.77;;;;;;;;;;5047212;28;20219;-47
2022/06/04 02:51:11;;;;;;;9.63;7.03;;;11.20;99.90;;;;;;5044651;28;20207;-50
2022/06/04 02:53:41;;;;;;;10.93;7.13;;;11.10;99.90;;;;;;5048883;28;20680;-47
2022/06/04 02:56:12;;;;;;;8.80;7.50;;;11.10;99.90;;;;;;5039220;28;20211;-49
2022/06/04 02:58:43;;;;;;;9.80;7.00;;;11.10;99.90;;;;;;5051424;28;20698;-47
2022/06/04 03:01:12;;;;;;;8.17;6.83;;;11.20;99.90;;;;;;5053919;28;20199;-51
2022/06/04 03:03:40;;;;;;;9.20;6.90;;;11.10;99.90;;;;;;5051427;28;20199;-48
2022/06/04 03:06:09;;;;;;;8.33;7.37;;;11.10;99.90;;;;;;5052848;28;20199;-52
2022/06/04 03:08:38;;;;;;;8.23;6.70;;;11.20;99.90;;;;;;5064677;28;20221;-48
2022/06/04 03:11:06;;;;;;;12.20;7.20;;;11.10;99.90;;;;;;5042744;28;20286;-48
2022/06/04 03:13:32;;;;;;;8.90;6.60;;;11.20;99.90;;;;;;5048941;28;20202;-50
2022/06/04 03:16:01;;;;;;;8.90;7.50;;;11.00;99.90;;;;;;5051477;28;20549;-47
2022/06/04 03:18:27;;;;;;;8.60;7.00;;;11.00;99.90;;;;;;5049440;28;20211;-49
2022/06/04 03:20:54;;;;;;;9.47;7.60;;;10.90;99.90;;;;;;5046241;28;20229;-52
2022/06/04 03:23:21;;;;;;;8.80;6.53;;;10.90;99.90;;;;;;5041940;28;20206;-47
2022/06/04 03:25:48;;;;;;;8.07;6.87;;;10.80;99.90;;;;;;5039524;28;20264;-49
2022/06/04 03:28:15;;;;;;;9.63;7.17;;;10.70;99.90;;;;;;5043967;28;20196;-52
2022/06/04 03:30:42;;;;;;;11.30;7.60;;;10.70;99.90;;;;;;5054401;28;20966;-47
2022/06/04 03:33:10;;;;;;;8.30;7.40;;;10.70;99.90;;;;;;5054931;28;20261;-53
2022/06/04 03:35:37;;;;;;;10.83;8.17;;;10.70;99.90;;;;;;5047275;28;20214;-49
2022/06/04 03:38:04;;;;;;;11.53;7.97;;;10.60;99.90;;;;;;5054760;28;20215;-50
2022/06/04 03:40:31;;;;;;;11.47;6.80;;;10.60;99.90;;;;;;5045759;28;20271;-50
2022/06/04 03:42:59;;;;;;;9.50;7.30;;;10.60;99.90;;;;;;5052926;28;20845;-48
2022/06/04 03:45:26;;;;;;;10.23;7.70;;;10.60;99.90;;;;;;5053230;28;20268;-52
2022/06/04 03:47:54;;;;;;;9.27;8.27;;;10.60;99.90;;;;;;5061801;28;20198;-46
2022/06/04 03:50:22;;;;;;;12.40;7.87;;;10.60;99.90;;;;;;5060191;28;20238;-52
2022/06/04 03:52:50;;;;;;;9.53;7.13;;;10.60;99.90;;;;;;5060857;28;20958;-49
2022/06/04 03:55:18;;;;;;;7.80;6.77;;;10.60;99.90;;;;;;5061442;28;20256;-49
2022/06/04 03:57:49;;;;;;;11.05;9.60;;;10.60;99.90;;;;;;5042420;28;22325;-46
2022/06/04 04:00:20;;;;;;;11.85;10.20;;;11.00;99.90;;;;;;5051438;28;20437;-49
2022/06/04 04:02:49;;;;;;;13.70;10.23;;;11.20;99.90;;;;;;5042099;28;20425;-47
2022/06/04 04:05:19;;;;;;;12.77;9.57;;;11.40;99.90;;;;;;5059370;28;20440;-47
2022/06/04 04:07:47;;;;;;;10.23;8.70;;;11.30;99.90;;;;;;5059062;28;20252;-51
2022/06/04 04:10:14;;;;;;;8.57;7.67;;;11.00;99.90;;;;;;5054282;28;20788;-52
2022/06/04 04:12:42;;;;;;;12.57;9.00;;;10.90;99.90;;;;;;5048105;28;20210;-50
2022/06/04 04:15:10;;;;;;;12.87;8.27;;;10.90;99.90;;;;;;5053877;28;20524;-48
2022/06/04 04:17:39;;;;;;;16.20;9.83;;;10.90;99.90;;;;;;5042467;28;20195;-48
2022/06/04 04:20:09;;;;;;;14.50;8.07;;;10.90;99.90;;;;;;5050851;28;20571;-47
2022/06/04 04:22:36;;;;;;;11.80;9.10;;;10.80;99.90;;;;;;5053632;28;20620;-51
2022/06/04 04:25:05;;;;;;;8.83;7.37;;;10.80;99.90;;;;;;5050655;28;20199;-52
2022/06/04 04:27:32;;;;;;;8.73;7.10;;;10.80;99.90;;;;;;5039125;28;20206;-48
2022/06/04 04:29:59;;;;;;;16.30;9.07;;;10.80;99.90;;;;;;5050641;28;20214;-46
2022/06/04 04:32:27;;;;;;;11.50;8.70;;;10.80;99.90;;;;;;5052088;28;20205;-48
2022/06/04 04:34:53;;;;;;;13.07;8.70;;;10.80;99.90;;;;;;5044486;28;20191;-50
2022/06/04 04:37:20;;;;;;;12.07;9.17;;;10.90;99.90;;;;;;5060547;28;20194;-50
2022/06/04 04:39:47;;;;;;;13.77;8.80;;;10.90;99.90;;;;;;5059645;28;20962;-47
2022/06/04 04:42:16;;;;;;;16.60;9.67;;;10.90;99.90;;;;;;5058448;28;20202;-46
2022/06/04 04:44:43;;;;;;;9.83;8.27;;;10.90;99.90;;;;;;5039311;28;20198;-46
2022/06/04 04:47:10;;;;;;;13.30;9.03;;;11.00;99.90;;;;;;5046424;28;20202;-46
2022/06/04 04:49:38;;;;;;;13.20;8.93;;;11.00;99.90;;;;;;5049232;28;20211;-52
2022/06/04 04:52:05;;;;;;;12.13;8.83;;;11.00;99.90;;;;;;5037264;28;20222;-49
2022/06/04 04:54:32;;;;;;;11.50;8.50;;;11.10;99.90;;;;;;5049216;28;20203;-47
2022/06/04 04:56:59;;;;;;;11.80;9.17;;;11.10;99.90;;;;;;5035352;28;20608;-50
2022/06/04 04:59:29;;;;;;;14.10;8.40;;;11.10;99.90;;;;;;5048731;28;20276;-51
2022/06/04 05:01:56;;;;;;;12.00;8.60;;;11.20;99.90;;;;;;5048583;28;20202;-50
2022/06/04 05:04:23;;;;;;;12.73;8.53;;;11.20;99.90;;;;;;5050459;28;20206;-51
2022/06/04 05:06:50;;;;;;;11.00;8.63;;;11.20;99.90;;;;;;5052145;28;20204;-49
2022/06/04 05:09:16;;;;;;;10.77;8.50;;;11.20;99.90;;;;;;5052084;28;20832;-49
2022/06/04 05:11:44;;;;;;;14.93;9.77;;;11.30;99.90;;;;;;5055616;28;20958;-49
2022/06/04 05:14:11;;;;;;;12.53;8.57;;;11.30;99.90;;;;;;5032112;28;20214;-48
2022/06/04 05:16:40;;;;;;;15.90;8.90;;;11.40;99.90;;;;;;5052238;28;20572;-48
2022/06/04 05:19:07;;;;;;;10.93;8.60;;;11.40;99.90;;;;;;5043402;28;20238;-47
2022/06/04 05:21:40;;;;;;;10.30;8.37;;;11.50;99.90;;;;;;5042339;28;20196;-46
2022/06/04 05:24:10;;;;;;;11.17;8.53;;;11.50;99.90;;;;;;5038235;28;20900;-50
2022/06/04 05:26:36;;;;;;;10.23;9.13;;;11.50;99.90;;;;;;5049723;28;20202;-46
2022/06/04 05:29:03;;;;;;;11.93;8.67;;;11.60;99.90;;;;;;5046418;28;20210;-48
2022/06/04 05:31:31;;;;;;;12.00;9.23;;;11.70;99.90;;;;;;5043372;28;20668;-50
2022/06/04 05:33:59;;;;;;;15.60;9.67;;;11.70;99.90;;;;;;5046773;28;20196;-49
2022/06/04 05:36:28;;;;;;;11.57;8.53;;;11.80;99.90;;;;;;5052727;28;20634;-46
2022/06/04 05:38:55;;;;;;;10.80;8.33;;;11.80;99.90;;;;;;5063109;28;20231;-52
2022/06/04 05:41:22;;;;;;;10.70;8.90;;;11.90;99.90;;;;;;5052036;28;20245;-50
2022/06/04 05:43:49;;;;;;;12.97;8.07;;;12.00;99.90;;;;;;5056044;28;20285;-48
2022/06/04 05:46:19;;;;;;;10.53;8.13;;;12.00;99.90;;;;;;5037245;28;20210;-50
2022/06/04 05:48:47;;;;;;;11.93;8.20;;;12.10;99.90;;;;;;5049283;28;20733;-50
2022/06/04 05:51:18;;;;;;;8.13;7.27;;;12.20;99.90;;;;;;5053105;28;20198;-47
2022/06/04 05:53:45;;;;;;;9.30;7.53;;;12.30;99.90;;;;;;5050458;28;20203;-50
2022/06/04 05:56:13;;;;;;;16.30;8.67;;;12.30;99.90;;;;;;5052045;28;20927;-48
2022/06/04 05:58:40;;;;;;;12.07;9.20;;;12.40;99.90;;;;;;5053713;28;20979;-46
2022/06/04 06:01:07;;;;;;;12.50;8.33;;;12.70;99.90;;;;;;5041065;28;20228;-47
2022/06/04 06:03:34;;;;;;;8.63;7.67;;;12.70;99.90;;;;;;5059122;28;20635;-48
2022/06/04 06:06:02;;;;;;;11.00;7.30;;;12.70;99.90;;;;;;5046729;28;20214;-47
2022/06/04 06:08:30;;;;;;;10.37;8.57;;;12.70;99.90;;;;;;5046753;28;20322;-47
2022/06/04 06:10:58;;;;;;;9.97;8.27;;;12.70;99.90;;;;;;5054271;28;20206;-48
2022/06/04 06:13:25;;;;;;;10.33;6.97;;;12.70;99.90;;;;;;5046287;28;20675;-49
2022/06/04 06:15:52;;;;;;;10.37;7.93;;;12.80;99.90;;;;;;5045567;28;20210;-52
2022/06/04 06:18:19;;;;;;;12.53;8.50;;;12.90;99.90;;;;;;5041063;28;20222;-52
2022/06/04 06:20:46;;;;;;;9.03;7.17;;;13.00;99.90;;;;;;5058011;28;20506;-49
2022/06/04 06:23:12;;;;;;;9.90;7.40;;;13.00;99.90;;;;;;5047538;28;20206;-52
2022/06/04 06:25:41;;;;;;;10.60;7.23;;;13.10;99.90;;;;;;5047541;28;20244;-48
2022/06/04 06:28:08;;;;;;;8.40;7.60;;;13.10;99.90;;;;;;5047064;28;20207;-50
2022/06/04 06:30:35;;;;;;;12.83;8.63;;;13.10;99.90;;;;;;5048595;28;20759;-50
2022/06/04 06:33:03;;;;;;;12.23;7.73;;;13.20;99.90;;;;;;5048236;28;20291;-51
2022/06/04 06:35:30;;;;;;;9.97;7.50;;;13.20;99.90;;;;;;5051313;28;20550;-48
2022/06/04 06:37:57;;;;;;;10.73;8.17;;;13.30;99.90;;;;;;5046623;28;20277;-48
2022/06/04 06:40:23;;;;;;;14.10;8.40;;;13.40;99.90;;;;;;5050878;28;20226;-48
2022/06/04 06:42:51;;;;;;;11.83;8.27;;;13.40;99.90;;;;;;5056390;28;20198;-48
2022/06/04 06:45:19;;;;;;;15.10;8.07;;;13.40;99.90;;;;;;5044473;28;20210;-54
2022/06/04 06:47:47;;;;;;;8.70;7.63;;;13.50;99.90;;;;;;5049886;28;20207;-51
2022/06/04 06:50:16;;;;;;;8.20;7.33;;;13.50;99.90;;;;;;5042487;28;20214;-51
2022/06/04 06:52:43;;;;;;;10.77;7.83;;;13.50;99.90;;;;;;5054519;28;20183;-51
2022/06/04 06:55:11;;;;;;;16.00;8.90;;;13.60;99.90;;;;;;5057112;28;20663;-53
2022/06/04 06:57:37;;;;;;;11.23;8.67;;;13.70;99.90;;;;;;5052858;28;20303;-51
2022/06/04 07:00:06;;;;;;;9.33;8.13;;;13.70;99.90;;;;;;5053832;28;20215;-53
2022/06/04 07:02:33;;;;;;;12.60;8.80;;;13.70;99.90;;;;;;5043661;28;20202;-53
2022/06/04 07:05:00;;;;;;;9.77;8.70;;;13.60;99.90;;;;;;5047312;28;20211;-47
2022/06/04 07:07:27;;;;;;;12.57;8.90;;;13.60;99.90;;;;;;5044841;28;20681;-51
2022/06/04 07:09:54;;;;;;;11.80;8.67;;;13.70;99.90;;;;;;5056638;28;20293;-47
2022/06/04 07:12:21;;;;;;;14.77;8.80;;;13.70;99.90;;;;;;5045908;28;20231;-52
2022/06/04 07:14:48;;;;;;;9.27;8.37;;;13.70;99.90;;;;;;5048341;28;20201;-52
2022/06/04 07:17:16;;;;;;;9.80;7.77;;;13.70;99.90;;;;;;5047528;28;20202;-52
2022/06/04 07:19:44;;;;;;;12.00;8.00;;;13.70;99.90;;;;;;5034667;28;20303;-52
2022/06/04 07:22:11;;;;;;;10.70;7.87;;;13.80;99.90;;;;;;5056269;28;20230;-50
2022/06/04 07:24:38;;;;;;;7.90;7.10;;;13.90;99.90;;;;;;5043361;28;20936;-51
2022/06/04 07:27:06;;;;;;;9.80;8.63;;;14.00;99.90;;;;;;5054632;28;20198;-46
2022/06/04 07:29:32;;;;;;;15.07;8.43;;;14.10;99.90;;;;;;5051210;28;20216;-51
2022/06/04 07:32:00;;;;;;;11.07;8.50;;;14.20;99.90;;;;;;5056585;28;20656;-50
2022/06/04 07:34:28;;;;;;;9.77;7.23;;;14.20;99.90;;;;;;5032034;28;20207;-54
2022/06/04 07:36:54;;;;;;;8.80;7.67;;;14.20;99.90;;;;;;5052843;28;20211;-49
2022/06/04 07:39:22;;;;;;;9.70;7.37;;;14.20;99.90;;;;;;5049976;28;20218;-50
2022/06/04 07:41:52;;;;;;;8.93;7.63;;;14.20;99.90;;;;;;5050847;28;20916;-48
2022/06/04 07:44:20;;;;;;;8.57;7.77;;;14.20;99.90;;;;;;5052015;28;20203;-50
2022/06/04 07:46:48;;;;;;;10.73;7.90;;;14.30;99.90;;;;;;5047398;28;20900;-48
2022/06/04 07:49:16;;;;;;;9.30;7.73;;;14.30;99.90;;;;;;5048587;28;20214;-51
2022/06/04 07:51:45;;;;;;;11.17;8.33;;;14.30;99.90;;;;;;5041330;28;20206;-48
2022/06/04 07:54:12;;;;;;;10.67;7.47;;;14.40;99.90;;;;;;5050969;28;20241;-50
2022/06/04 07:56:40;;;;;;;8.20;7.37;;;14.50;99.90;;;;;;5043440;28;20194;-48
2022/06/04 07:59:09;;;;;;;9.00;7.90;;;14.60;99.90;;;;;;5052748;28;20215;-48
2022/06/04 08:01:36;;;;;;;10.20;7.60;;;14.70;99.90;;;;;;5048131;28;20948;-47
2022/06/04 08:04:04;;;;;;;9.87;7.13;;;14.70;99.90;;;;;;5047676;28;20294;-51
2022/06/04 08:06:32;;;;;;;7.80;7.03;;;14.90;99.90;;;;;;5031095;28;20288;-53
2022/06/04 08:09:00;;;;;;;6.87;6.27;;;15.00;99.90;;;;;;5051512;28;20219;-48
2022/06/04 08:11:32;;;;;;;9.37;6.73;;;15.10;99.90;;;;;;5042415;28;20237;-50
2022/06/04 08:14:00;;;;;;;7.73;6.93;;;15.30;99.90;;;;;;5049219;28;20309;-48
2022/06/04 08:16:27;;;;;;;8.70;6.60;;;15.40;99.90;;;;;;5045595;28;20282;-53
2022/06/04 08:18:54;;;;;;;10.80;7.20;;;15.50;99.90;;;;;;5048903;28;20581;-50
2022/06/04 08:21:21;;;;;;;12.90;7.00;;;15.40;99.90;;;;;;5043712;28;20203;-48
2022/06/04 08:23:48;;;;;;;8.77;6.90;;;15.50;99.90;;;;;;5044244;28;20211;-52
2022/06/04 08:26:17;;;;;;;9.93;7.17;;;15.60;99.90;;;;;;5051085;28;20199;-53
2022/06/04 08:28:44;;;;;;;7.27;6.53;;;15.60;99.90;;;;;;5048939;28;20268;-47
2022/06/04 08:31:14;;;;;;;8.67;6.13;;;15.70;99.90;;;;;;5037815;28;20660;-50
2022/06/04 08:33:41;;;;;;;6.73;5.50;;;15.90;99.90;;;;;;5043834;28;20573;-53
2022/06/04 08:36:10;;;;;;;6.20;4.77;;;15.90;99.90;;;;;;5040022;28;20217;-48
2022/06/04 08:38:38;;;;;;;5.43;4.37;;;16.00;99.90;;;;;;5036793;28;20241;-49
2022/06/04 08:41:08;;;;;;;8.30;5.10;;;16.10;99.90;;;;;;5051478;28;20230;-48
2022/06/04 08:43:45;;;;;;;5.90;5.33;;;16.20;99.90;;;;;;5042577;28;20644;-49
2022/06/04 08:46:16;;;;;;;6.07;5.07;;;16.10;99.90;;;;;;5040915;28;20281;-50
2022/06/04 08:48:44;;;;;;;7.83;5.20;;;16.20;99.90;;;;;;5051583;28;20222;-52
2022/06/04 08:51:19;;;;;;;5.43;4.87;;;16.40;99.90;;;;;;5043060;28;20680;-48
2022/06/04 08:53:51;;;;;;;8.00;4.90;;;16.50;99.90;;;;;;5033957;28;20679;-52
2022/06/04 08:59:18;;;;;;;5.93;5.00;;;16.50;99.90;;;;;;5048662;28;20218;-50
2022/06/04 09:01:52;;;;;;;5.40;4.90;;;16.50;99.90;;;;;;5051339;28;20218;-52
2022/06/04 09:04:36;;;;;;;6.83;5.60;;;16.50;99.90;;;;;;5050835;28;20548;-49
2022/06/04 09:07:11;;;;;;;5.10;4.00;;;16.50;99.90;;;;;;5056533;28;20202;-48
2022/06/04 09:09:43;;;;;;;4.23;3.80;;;16.70;99.90;;;;;;5046166;28;20214;-54
2022/06/04 09:12:19;;;;;;;4.70;4.17;;;16.50;99.90;;;;;;5056404;28;20199;-49
2022/06/04 09:14:52;;;;;;;4.53;3.70;;;16.50;99.90;;;;;;5043653;28;20210;-52
2022/06/04 09:17:25;;;;;;;4.60;4.27;;;16.70;99.90;;;;;;5047554;28;20195;-48
2022/06/04 09:19:56;;;;;;;7.67;4.70;;;16.90;99.90;;;;;;5049524;28;20991;-48
2022/06/04 09:22:25;;;;;;;4.40;4.00;;;16.80;99.90;;;;;;5054095;28;20199;-51
2022/06/04 09:24:52;;;;;;;4.10;3.70;;;16.80;99.90;;;;;;5049223;28;20276;-48
2022/06/04 09:27:33;;;;;;;4.00;3.70;;;16.90;99.90;;;;;;5056314;28;20199;-51
2022/06/04 09:30:13;;;;;;;4.63;4.23;;;17.00;99.90;;;;;;5055893;28;20202;-49
2022/06/04 09:32:50;;;;;;;4.93;4.37;;;17.10;99.90;;;;;;5052299;28;20203;-51
2022/06/04 09:35:19;;;;;;;6.30;4.17;;;17.20;99.90;;;;;;5049569;28;20217;-52
2022/06/04 09:37:48;;;;;;;5.90;4.13;;;17.20;99.90;;;;;;5049506;28;20195;-53
2022/06/04 09:40:22;;;;;;;5.40;4.13;;;17.30;99.90;;;;;;5049716;28;20223;-47
2022/06/04 09:42:49;;;;;;;4.53;3.53;;;17.40;99.90;;;;;;5055406;28;20256;-52
2022/06/04 09:45:22;;;;;;;3.97;3.53;;;17.40;99.90;;;;;;5050218;28;20207;-52
2022/06/04 09:47:54;;;;;;;4.07;3.67;;;17.40;99.90;;;;;;5057182;28;20186;-49
2022/06/04 09:50:25;;;;;;;3.43;3.20;;;17.40;99.90;;;;;;5049460;28;20247;-50
2022/06/04 09:53:13;;;;;;;3.67;3.37;;;17.50;99.90;;;;;;5043115;28;20192;-52
2022/06/04 09:55:48;;;;;;;3.83;2.73;;;17.50;99.90;;;;;;5042720;28;20230;-50
2022/06/04 09:58:21;;;;;;;3.60;3.30;;;17.40;99.90;;;;;;5053945;28;20274;-47
2022/06/04 10:00:59;;;;;;;3.50;3.20;;;17.50;99.90;;;;;;5055707;28;20631;-51
2022/06/04 10:03:27;;;;;;;4.20;3.53;;;17.50;99.90;;;;;;5053382;28;20203;-52
2022/06/04 10:06:02;;;;;;;3.43;3.03;;;17.60;99.90;;;;;;5042773;28;20948;-51
2022/06/04 10:08:30;;;;;;;3.00;2.77;;;17.70;99.90;;;;;;5046625;28;20679;-51
2022/06/04 10:10:59;;;;;;;3.50;3.20;;;17.80;99.90;;;;;;5039154;28;20195;-50
2022/06/04 10:13:46;;;;;;;3.53;3.23;;;17.80;99.90;;;;;;5049066;28;20206;-51
2022/06/04 10:16:20;;;;;;;2.93;2.67;;;17.80;99.90;;;;;;5045890;28;20199;-48
2022/06/04 10:18:59;;;;;;;3.50;3.00;;;18.00;99.90;;;;;;5039343;28;20222;-53
2022/06/04 10:21:29;;;;;;;3.13;2.83;;;18.00;99.90;;;;;;5049391;28;20384;-47
2022/06/04 10:23:57;;;;;;;3.43;3.13;;;18.10;99.90;;;;;;5048435;28;20200;-47
2022/06/04 10:26:49;;;;;;;3.73;3.43;;;18.20;99.90;;;;;;5038714;28;20210;-52
2022/06/04 10:29:47;;;;;;;2.80;2.60;;;18.20;99.90;;;;;;5049910;28;20285;-52
2022/06/04 10:32:26;;;;;;;3.33;3.10;;;18.10;99.90;;;;;;5052814;28;20237;-48
2022/06/04 10:34:59;;;;;;;3.83;3.13;;;18.20;99.90;;;;;;5046746;28;20202;-50
2022/06/04 10:37:41;;;;;;;2.87;2.67;;;18.30;99.90;;;;;;5057503;28;20663;-52
2022/06/04 10:40:26;;;;;;;3.27;2.80;;;18.30;99.90;;;;;;5047561;28;20266;-53
2022/06/04 10:43:02;;;;;;;4.77;2.93;;;18.40;99.90;;;;;;5048313;28;20919;-48
2022/06/04 10:45:34;;;;;;;3.00;2.60;;;18.50;99.90;;;;;;5046096;28;20556;-48
2022/06/04 10:48:10;;;;;;;4.10;2.50;;;18.60;99.90;;;;;;5055875;28;20184;-47
2022/06/04 10:53:53;;;;;;;3.60;3.30;;;18.70;99.90;;;;;;5056970;28;20573;-52
2022/06/04 10:56:25;;;;;;;4.17;3.47;;;18.70;99.90;;;;;;5050921;28;20207;-51
2022/06/04 10:59:02;;;;;;;4.30;2.90;;;18.60;99.90;;;;;;5048477;28;20941;-50
2022/06/04 11:01:35;;;;;;;3.00;2.80;;;18.50;99.90;;;;;;5055338;28;20593;-53
2022/06/04 11:04:17;;;;;;;3.27;2.80;;;18.60;99.90;;;;;;5050697;28;20937;-50
2022/06/04 11:06:49;;;;;;;3.10;2.80;;;18.70;99.90;;;;;;5045256;28;20204;-48
2022/06/04 11:09:19;;;;;;;2.80;2.60;;;18.90;99.90;;;;;;5051988;28;20947;-49
2022/06/04 11:11:51;;;;;;;4.10;2.60;;;18.90;99.90;;;;;;5046778;28;20833;-48
2022/06/04 11:14:25;;;;;;;3.57;2.90;;;19.00;99.90;;;;;;5043965;28;20282;-50
2022/06/04 11:16:56;;;;;;;3.33;2.47;;;19.00;99.90;;;;;;5052294;28;20198;-47
2022/06/04 11:19:31;;;;;;;2.60;2.40;;;19.00;99.90;;;;;;5045043;28;20223;-48
2022/06/04 11:22:03;;;;;;;3.57;2.93;;;19.10;99.90;;;;;;5044496;28;20951;-49
2022/06/04 11:24:36;;;;;;;6.90;3.40;;;19.10;99.90;;;;;;5048006;28;20672;-51
2022/06/04 11:27:12;;;;;;;4.20;2.87;;;19.20;99.90;;;;;;5047161;28;20211;-48
2022/06/04 11:29:40;;;;;;;3.53;2.90;;;19.30;99.90;;;;;;5043435;28;20629;-54
2022/06/04 11:32:10;;;;;;;3.43;2.60;;;19.30;99.90;;;;;;5051815;28;20207;-51
2022/06/04 11:35:14;;;;;;;4.43;2.97;;;19.40;99.90;;;;;;5049806;28;20328;-48
2022/06/04 11:38:02;;;;;;;3.23;2.97;;;19.50;99.80;;;;;;5043645;28;20203;-48
2022/06/04 11:40:37;;;;;;;4.33;3.17;;;19.50;99.20;;;;;;5045742;28;20259;-49
2022/06/04 11:43:16;;;;;;;3.33;2.43;;;19.40;99.10;;;;;;5045045;28;20234;-48
2022/06/04 11:46:01;;;;;;;3.63;2.70;;;19.40;98.30;;;;;;5038860;28;20256;-53
2022/06/04 11:48:51;;;;;;;3.17;2.70;;;19.30;98.00;;;;;;5048244;28;20702;-47
2022/06/04 11:51:37;;;;;;;2.80;2.53;;;19.50;98.90;;;;;;5047378;28;20215;-48
2022/06/04 11:54:15;;;;;;;4.30;2.90;;;19.60;97.90;;;;;;5041885;28;20730;-48
2022/06/04 11:56:51;;;;;;;3.10;2.80;;;19.60;98.70;;;;;;5049193;28;20222;-48
2022/06/04 11:59:31;;;;;;;2.83;2.63;;;19.70;98.40;;;;;;5047376;28;20222;-46
2022/06/04 12:02:01;;;;;;;4.57;2.40;;;19.70;97.80;;;;;;5040292;28;21402;-47
2022/06/04 12:04:34;;;;;;;4.40;2.80;;;19.80;98.70;;;;;;5048635;28;20204;-51
2022/06/04 12:07:09;;;;;;;5.00;3.00;;;19.90;99.10;;;;;;5050461;28;20191;-48
2022/06/04 12:09:41;;;;;;;3.47;2.93;;;20.10;98.80;;;;;;5039270;28;20226;-47
2022/06/04 12:12:14;;;;;;;4.30;3.30;;;20.20;98.10;;;;;;5049365;28;20199;-51
2022/06/04 12:14:46;;;;;;;5.77;3.10;;;20.20;98.10;;;;;;5055624;28;20202;-48
2022/06/04 12:17:17;;;;;;;4.13;3.53;;;20.10;99.00;;;;;;5042655;28;20268;-49
2022/06/04 12:25:37;;;;;;;3.37;2.77;;;20.30;97.80;;;;;;5038945;28;20545;-49
2022/06/04 12:28:21;;;;;;;2.90;2.60;;;20.40;97.90;;;;;;5050607;28;20674;-48
2022/06/04 12:30:48;;;;;;;2.10;1.93;;;20.50;96.50;;;;;;5036645;28;20202;-50
2022/06/04 12:33:25;;;;;;;4.27;3.00;;;20.50;96.70;;;;;;5054971;28;20679;-51
2022/06/04 12:35:59;;;;;;;6.10;2.77;;;20.70;96.60;;;;;;5041865;28;20202;-47
2022/06/04 12:38:27;;;;;;;3.30;3.10;;;20.80;96.10;;;;;;5047726;28;20218;-48
2022/06/04 12:41:06;;;;;;;2.50;2.30;;;20.60;96.30;;;;;;5037872;28;20261;-45
2022/06/04 12:43:36;;;;;;;2.57;2.40;;;20.80;96.30;;;;;;5042810;28;20203;-49
2022/06/04 12:46:14;;;;;;;2.37;2.17;;;20.90;95.50;;;;;;5045155;28;20195;-46
2022/06/04 12:48:59;;;;;;;3.47;2.50;;;21.20;94.30;;;;;;5043222;28;20649;-49
2022/06/04 12:51:48;;;;;;;2.50;2.30;;;21.30;94.80;;;;;;5048854;28;20286;-48
2022/06/04 12:54:48;;;;;;;2.60;2.40;;;21.70;92.80;;;;;;5044973;28;20198;-48
2022/06/04 12:57:25;;;;;;;7.43;2.60;;;22.10;91.80;;;;;;5043492;28;20206;-47
2022/06/04 13:00:05;;;;;;;4.13;2.43;;;22.40;93.10;;;;;;5053262;28;20229;-48
2022/06/04 13:02:35;;;;;;;3.63;2.30;;;22.80;92.30;;;;;;5048252;28;20694;-48
2022/06/04 13:05:13;;;;;;;2.63;2.40;;;;;;;;;;5050410;28;20199;-46
2022/06/04 13:07:50;;;;;;;2.35;2.25;;;23.30;88.10;;;;;;5055569;28;20552;-49
2022/06/04 13:10:34;;;;;;;2.67;2.47;;;23.60;90.10;;;;;;5047063;28;20217;-50
2022/06/04 13:13:12;;;;;;;3.45;2.40;;;23.90;87.30;;;;;;5043630;28;20932;-48
2022/06/04 13:15:49;;;;;;;2.83;2.63;;;24.00;86.10;;;;;;5048182;28;20199;-48
2022/06/04 13:18:20;;;;;;;6.22;2.47;;;23.60;99.90;;;;;;5040575;28;20227;-49
2022/06/04 13:20:48;;;;;;;2.50;2.20;;;;;;;;;;5055112;28;20215;-47
2022/06/04 13:23:26;;;;;;;2.03;1.92;;;24.30;80.30;;;;;;5047676;28;20202;-48
2022/06/04 13:26:02;;;;;;;2.03;1.90;;;24.30;81.00;;;;;;5045560;28;20210;-47
2022/06/04 13:28:36;;;;;;;3.55;1.90;;;24.80;77.00;;;;;;5042721;28;20211;-46